createdAt,value
2018-06-05T00:01:50.036Z,100794.05
2018-06-05T00:04:18.597Z,100794.94
2018-06-05T00:06:47.169Z,100798.89
2018-06-05T00:09:15.758Z,100798.41
2018-06-05T00:11:44.332Z,100796.66
2018-06-05T00:14:13.033Z,100797.10
2018-06-05T00:16:41.613Z,100790.92
2018-06-05T00:19:10.197Z,100793.97
2018-06-05T00:21:38.791Z,100793.52
2018-06-05T00:24:07.485Z,100796.62
2018-06-05T00:26:36.084Z,100791.73
2018-06-05T00:29:04.742Z,100789.05
2018-06-05T00:31:33.500Z,100789.95
2018-06-05T00:34:02.183Z,100789.47
2018-06-05T00:36:30.809Z,100795.67
2018-06-05T00:38:59.432Z,100794.34
2018-06-05T00:41:28.054Z,100794.39
2018-06-05T00:43:56.605Z,100799.66
2018-06-05T00:46:25.172Z,100799.18
2018-06-05T00:48:53.945Z,100797.45
2018-06-05T00:51:33.432Z,100800.02
2018-06-05T00:54:01.985Z,100799.73
2018-06-05T00:56:30.596Z,100806.35
2018-06-05T00:58:59.168Z,100809.02
2018-06-05T01:01:27.787Z,100804.33
2018-06-05T01:03:56.455Z,100806.85
2018-06-05T01:06:25.031Z,100812.52
2018-06-05T01:08:53.668Z,100811.28
2018-06-05T01:11:22.280Z,100807.78
2018-06-05T01:13:50.881Z,100807.23
2018-06-05T01:16:19.443Z,100808.98
2018-06-05T01:18:48.108Z,100809.74
2018-06-05T01:21:16.701Z,100807.48
2018-06-05T01:23:45.440Z,100805.42
2018-06-05T01:26:14.028Z,100805.42
2018-06-05T01:28:42.552Z,100808.09
2018-06-05T01:31:11.239Z,100806.30
2018-06-05T01:33:39.780Z,100815.06
2018-06-05T01:36:08.330Z,100808.50
2018-06-05T01:38:36.904Z,100810.25
2018-06-05T01:41:05.440Z,100815.06
2018-06-05T01:43:34.059Z,100817.59
2018-06-05T01:46:02.640Z,100824.50
2018-06-05T01:48:31.258Z,100828.52
2018-06-05T01:50:59.834Z,100825.85
2018-06-05T01:53:28.656Z,100833.26
2018-06-05T01:55:57.227Z,100836.75
2018-06-05T01:58:26.057Z,100842.77
2018-06-05T02:00:54.846Z,100842.38
2018-06-05T02:03:23.524Z,100840.05
2018-06-05T02:05:52.161Z,100839.63
2018-06-05T02:08:20.701Z,100843.20
2018-06-05T02:10:49.275Z,100839.63
2018-06-05T02:13:17.947Z,100847.67
2018-06-05T02:15:46.493Z,100844.27
2018-06-05T02:18:15.064Z,100840.27
2018-06-05T02:20:43.691Z,100841.63
2018-06-05T02:23:12.242Z,100839.95
2018-06-05T02:25:40.827Z,100842.06
2018-06-05T02:28:09.380Z,100846.48
2018-06-05T02:30:37.936Z,100844.78
2018-06-05T02:33:06.752Z,100845.66
2018-06-05T02:35:35.347Z,100844.34
2018-06-05T02:38:03.929Z,100840.05
2018-06-05T02:40:32.520Z,100840.89
2018-06-05T02:43:01.054Z,100844.80
2018-06-05T02:45:30.320Z,100844.82
2018-06-05T02:47:58.874Z,100848.78
2018-06-05T02:50:27.615Z,100844.88
2018-06-05T02:52:56.159Z,100836.04
2018-06-05T02:55:24.741Z,100838.28
2018-06-05T02:57:53.439Z,100833.08
2018-06-05T03:00:22.021Z,100834.39
2018-06-05T03:02:50.632Z,100835.73
2018-06-05T03:05:19.160Z,100837.50
2018-06-05T03:07:47.772Z,100839.36
2018-06-05T03:10:16.397Z,100843.23
2018-06-05T03:12:44.992Z,100838.52
2018-06-05T03:15:13.557Z,100843.44
2018-06-05T03:17:42.281Z,100839.00
2018-06-05T03:20:10.889Z,100839.47
2018-06-05T03:22:39.470Z,100841.23
2018-06-05T03:25:08.039Z,100842.55
2018-06-05T03:27:36.636Z,100839.88
2018-06-05T03:30:05.571Z,100839.94
2018-06-05T03:32:34.218Z,100844.75
2018-06-05T03:35:02.804Z,100848.23
2018-06-05T03:37:31.339Z,100852.68
2018-06-05T03:39:59.992Z,100848.20
2018-06-05T03:42:28.562Z,100855.58
2018-06-05T03:44:57.129Z,100851.23
2018-06-05T03:47:25.771Z,100851.28
2018-06-05T03:49:54.364Z,100858.28
2018-06-05T03:52:22.920Z,100855.20
2018-06-05T03:54:51.543Z,100855.57
2018-06-05T03:57:20.100Z,100860.02
2018-06-05T03:59:48.725Z,100851.73
2018-06-05T04:02:17.260Z,100851.66
2018-06-05T04:04:45.860Z,100853.42
2018-06-05T04:07:14.485Z,100854.27
2018-06-05T04:09:43.703Z,100858.53
2018-06-05T04:12:12.266Z,100860.71
2018-06-05T04:14:41.562Z,100867.73
2018-06-05T04:17:10.057Z,100859.12
2018-06-05T04:19:38.642Z,100858.70
2018-06-05T04:22:07.415Z,100862.72
2018-06-05T04:24:36.037Z,100864.89
2018-06-05T04:27:04.613Z,100870.22
2018-06-05T04:29:33.190Z,100864.08
2018-06-05T04:32:01.744Z,100862.30
2018-06-05T04:34:30.331Z,100866.25
2018-06-05T04:36:58.904Z,100866.64
2018-06-05T04:39:27.421Z,100864.89
2018-06-05T04:41:56.181Z,100867.56
2018-06-05T04:44:24.795Z,100872.85
2018-06-05T04:46:53.529Z,100869.33
2018-06-05T04:49:22.071Z,100867.59
2018-06-05T04:51:50.684Z,100872.03
2018-06-05T04:54:19.235Z,100879.05
2018-06-05T04:56:47.808Z,100883.05
2018-06-05T04:59:16.384Z,100883.48
2018-06-05T05:01:44.956Z,100883.45
2018-06-05T05:04:13.501Z,100885.26
2018-06-05T05:06:42.088Z,100889.24
2018-06-05T05:09:10.651Z,100888.27
2018-06-05T05:11:39.247Z,100884.24
2018-06-05T05:14:07.809Z,100888.33
2018-06-05T05:16:36.625Z,100888.73
2018-06-05T05:19:05.457Z,100889.69
2018-06-05T05:21:34.032Z,100886.95
2018-06-05T05:24:02.716Z,100891.77
2018-06-05T05:26:31.275Z,100892.69
2018-06-05T05:29:00.061Z,100891.84
2018-06-05T05:31:28.647Z,100892.77
2018-06-05T05:33:57.341Z,100879.64
2018-06-05T05:36:25.900Z,100878.35
2018-06-05T05:38:54.469Z,100873.55
2018-06-05T05:41:23.024Z,100874.89
2018-06-05T05:43:51.584Z,100876.70
2018-06-05T05:46:20.370Z,100871.83
2018-06-05T05:48:48.944Z,100875.78
2018-06-05T05:51:17.569Z,100878.45
2018-06-05T05:53:46.298Z,100881.45
2018-06-05T05:56:14.877Z,100879.28
2018-06-05T05:58:43.477Z,100880.64
2018-06-05T06:01:12.284Z,100863.84
2018-06-05T06:03:40.831Z,100890.27
2018-06-05T06:06:09.625Z,100887.61
2018-06-05T06:08:38.219Z,100895.53
2018-06-05T06:11:06.844Z,100888.53
2018-06-05T06:13:35.417Z,100890.73
2018-06-05T06:16:04.100Z,100887.20
2018-06-05T06:18:32.713Z,100892.03
2018-06-05T06:21:01.257Z,100894.27
2018-06-05T06:23:29.792Z,100896.44
2018-06-05T06:25:58.372Z,100899.04
2018-06-05T06:28:26.915Z,100899.55
2018-06-05T06:30:55.502Z,100909.23
2018-06-05T06:33:24.048Z,100903.11
2018-06-05T06:35:52.636Z,100909.66
2018-06-05T06:38:21.206Z,100905.70
2018-06-05T06:40:50.756Z,100904.42
2018-06-05T06:43:19.300Z,100904.85
2018-06-05T06:45:48.064Z,100909.70
2018-06-05T06:48:16.624Z,100909.22
2018-06-05T06:50:45.188Z,100907.41
2018-06-05T06:53:13.868Z,100905.71
2018-06-05T06:55:42.545Z,100900.93
2018-06-05T06:58:11.123Z,100903.12
2018-06-05T07:00:39.664Z,100905.34
2018-06-05T07:03:08.245Z,100913.72
2018-06-05T07:05:36.781Z,100913.72
2018-06-05T07:08:05.456Z,100912.80
2018-06-05T07:10:34.172Z,100909.28
2018-06-05T07:13:02.796Z,100913.69
2018-06-05T07:15:32.052Z,100912.41
2018-06-05T07:18:00.913Z,100915.02
2018-06-05T07:20:29.789Z,100913.72
2018-06-05T07:23:00.267Z,100915.04
2018-06-05T07:25:28.926Z,100920.23
2018-06-05T07:27:57.516Z,100916.27
2018-06-05T07:30:26.222Z,100910.98
2018-06-05T07:32:54.801Z,100917.52
2018-06-05T07:35:23.332Z,100917.56
2018-06-05T07:37:51.880Z,100916.26
2018-06-05T07:40:20.472Z,100914.91
2018-06-05T07:42:49.024Z,100913.17
2018-06-05T07:45:17.649Z,100919.77
2018-06-05T07:47:46.197Z,100919.74
2018-06-05T07:50:15.652Z,100921.53
2018-06-05T07:52:44.236Z,100922.88
2018-06-05T07:55:12.817Z,100923.77
2018-06-05T07:57:41.407Z,100923.79
2018-06-05T08:00:10.148Z,100921.11
2018-06-05T08:02:38.717Z,100920.72
2018-06-05T08:05:07.281Z,100920.67
2018-06-05T08:07:35.921Z,100917.16
2018-06-05T08:10:04.911Z,100918.48
2018-06-05T08:12:33.492Z,100914.55
2018-06-05T08:15:02.120Z,100918.95
2018-06-05T08:17:30.857Z,100918.95
2018-06-05T08:19:59.415Z,100925.10
2018-06-05T08:22:36.845Z,100929.04
2018-06-05T08:25:05.416Z,100922.85
2018-06-05T08:27:34.008Z,100922.42
2018-06-05T08:30:02.537Z,100924.20
2018-06-05T08:32:31.117Z,100920.67
2018-06-05T08:34:59.640Z,100921.13
2018-06-05T08:37:28.235Z,100917.18
2018-06-05T08:39:57.312Z,100924.65
2018-06-05T08:42:25.905Z,100927.74
2018-06-05T08:44:54.581Z,100930.00
2018-06-05T08:47:23.196Z,100942.68
2018-06-05T08:49:51.729Z,100933.46
2018-06-05T08:52:20.339Z,100933.06
2018-06-05T08:54:48.870Z,100932.63
2018-06-05T08:57:17.435Z,100939.66
2018-06-05T08:59:46.047Z,100937.89
2018-06-05T09:02:14.672Z,100941.87
2018-06-05T09:04:43.264Z,100934.37
2018-06-05T09:07:11.805Z,100939.66
2018-06-05T09:09:40.483Z,100942.74
2018-06-05T09:12:09.102Z,100943.19
2018-06-05T09:14:37.695Z,100940.95
2018-06-05T09:17:06.286Z,100942.73
2018-06-05T09:19:35.006Z,100941.43
2018-06-05T09:22:03.694Z,100946.23
2018-06-05T09:24:32.301Z,100948.87
2018-06-05T09:27:00.897Z,100954.16
2018-06-05T09:29:29.542Z,100949.73
2018-06-05T09:31:58.102Z,100953.27
2018-06-05T09:34:26.981Z,100955.90
2018-06-05T09:36:55.609Z,100958.97
2018-06-05T09:39:24.304Z,100960.29
2018-06-05T09:41:52.890Z,100956.34
2018-06-05T09:44:21.444Z,100961.17
2018-06-05T09:46:50.195Z,100952.37
2018-06-05T09:49:18.849Z,100953.66
2018-06-05T09:51:47.528Z,100961.16
2018-06-05T09:54:16.106Z,100951.04
2018-06-05T09:56:44.695Z,100956.31
2018-06-05T09:59:13.370Z,100942.05
2018-06-05T10:01:41.944Z,100950.93
2018-06-05T10:04:10.504Z,100947.03
2018-06-05T10:06:39.093Z,100949.14
2018-06-05T10:09:08.756Z,100955.33
2018-06-05T10:11:37.438Z,100943.46
2018-06-05T10:14:06.100Z,100946.47
2018-06-05T10:16:34.726Z,100944.74
2018-06-05T10:19:03.319Z,100945.13
2018-06-05T10:21:32.088Z,100946.93
2018-06-05T10:24:00.964Z,100936.34
2018-06-05T10:26:29.512Z,100941.20
2018-06-05T10:28:58.287Z,100936.28
2018-06-05T10:31:26.835Z,100937.20
2018-06-05T10:33:55.641Z,100940.71
2018-06-05T10:36:24.170Z,100937.21
2018-06-05T10:38:52.810Z,100933.97
2018-06-05T10:41:21.453Z,100930.23
2018-06-05T10:43:50.194Z,100928.00
2018-06-05T10:46:18.928Z,100920.55
2018-06-05T10:48:47.492Z,100924.52
2018-06-05T10:51:16.256Z,100918.76
2018-06-05T10:53:45.034Z,100923.64
2018-06-05T10:56:13.829Z,100916.76
2018-06-05T10:58:42.408Z,100920.52
2018-06-05T11:01:11.140Z,100920.81
2018-06-05T11:03:39.775Z,100916.69
2018-06-05T11:06:08.456Z,100914.87
2018-06-05T11:08:37.304Z,100917.38
2018-06-05T11:11:05.977Z,100919.53
2018-06-05T11:13:34.725Z,100914.89
2018-06-05T11:16:03.383Z,100907.96
2018-06-05T11:18:31.956Z,100902.41
2018-06-05T11:21:00.544Z,100912.13
2018-06-05T11:23:29.111Z,100910.66
2018-06-05T11:25:57.821Z,100901.67
2018-06-05T11:28:26.555Z,100908.21
2018-06-05T11:30:55.100Z,100911.27
2018-06-05T11:33:23.725Z,100907.93
2018-06-05T11:35:52.304Z,100901.30
2018-06-05T11:38:21.076Z,100894.22
2018-06-05T11:40:49.753Z,100901.27
2018-06-05T11:43:18.468Z,100895.97
2018-06-05T11:45:47.388Z,100900.91
2018-06-05T11:48:16.094Z,100895.51
2018-06-05T11:50:44.794Z,100893.52
2018-06-05T11:53:13.422Z,100892.45
2018-06-05T11:55:42.038Z,100887.44
2018-06-05T11:58:10.627Z,100884.08
2018-06-05T12:00:39.181Z,100881.91
2018-06-05T12:03:07.804Z,100881.86
2018-06-05T12:05:36.391Z,100888.61
2018-06-05T12:08:05.034Z,100879.58
2018-06-05T12:10:33.581Z,100874.55
2018-06-05T12:13:02.552Z,100873.39
2018-06-05T12:15:31.221Z,100878.92
2018-06-05T12:17:59.779Z,100882.17
2018-06-05T12:20:28.664Z,100874.45
2018-06-05T12:22:57.253Z,100870.58
2018-06-05T12:25:25.871Z,100865.13
2018-06-05T12:27:54.454Z,100870.14
2018-06-05T12:30:23.132Z,100863.21
2018-06-05T12:32:51.726Z,100863.36
2018-06-05T12:35:20.304Z,100859.63
2018-06-05T12:37:48.934Z,100854.47
2018-06-05T12:40:17.639Z,100853.73
2018-06-05T12:42:46.165Z,100841.22
2018-06-05T12:45:14.765Z,100854.00
2018-06-05T12:47:43.312Z,100853.63
2018-06-05T12:50:11.945Z,100843.70
2018-06-05T12:52:40.580Z,100840.20
2018-06-05T12:55:09.219Z,100844.45
2018-06-05T12:57:37.862Z,100843.83
2018-06-05T13:00:06.444Z,100839.02
2018-06-05T13:02:35.039Z,100843.03
2018-06-05T13:05:03.640Z,100839.23
2018-06-05T13:07:32.291Z,100840.64
2018-06-05T13:10:00.932Z,100836.09
2018-06-05T13:12:29.695Z,100837.89
2018-06-05T13:14:58.245Z,100834.16
2018-06-05T13:17:26.868Z,100844.46
2018-06-05T13:19:55.456Z,100835.42
2018-06-05T13:22:24.044Z,100833.08
2018-06-05T13:24:52.837Z,100828.88
2018-06-05T13:27:21.580Z,100829.45
2018-06-05T13:29:50.283Z,100825.97
2018-06-05T13:32:19.250Z,100832.17
2018-06-05T13:34:47.795Z,100827.41
2018-06-05T13:37:16.403Z,100820.58
2018-06-05T13:39:45.127Z,100823.73
2018-06-05T13:42:13.728Z,100825.17
2018-06-05T13:44:42.370Z,100817.16
2018-06-05T13:47:10.972Z,100814.29
2018-06-05T13:49:39.622Z,100820.64
2018-06-05T13:52:08.228Z,100808.91
2018-06-05T13:54:36.840Z,100817.33
2018-06-05T13:57:05.459Z,100811.73
2018-06-05T13:59:34.098Z,100809.66
2018-06-05T14:02:02.697Z,100802.91
2018-06-05T14:04:31.294Z,100799.33
2018-06-05T14:06:59.881Z,100798.91
2018-06-05T14:09:28.496Z,100799.19
2018-06-05T14:11:57.204Z,100802.81
2018-06-05T14:14:26.084Z,100804.28
2018-06-05T14:16:54.810Z,100802.84
2018-06-05T14:19:23.577Z,100797.34
2018-06-05T14:21:52.240Z,100797.71
2018-06-05T14:24:20.830Z,100798.22
2018-06-05T14:26:49.462Z,100795.31
2018-06-05T14:29:18.018Z,100789.11
2018-06-05T14:31:46.688Z,100790.44
2018-06-05T14:34:15.324Z,100796.73
2018-06-05T14:36:43.944Z,100792.28
2018-06-05T14:39:12.770Z,100789.16
2018-06-05T14:41:41.408Z,100783.37
2018-06-05T14:44:10.297Z,100777.16
2018-06-05T14:46:38.981Z,100779.50
2018-06-05T14:49:07.695Z,100771.72
2018-06-05T14:51:36.316Z,100777.45
2018-06-05T14:54:04.967Z,100778.86
2018-06-05T14:56:33.625Z,100774.05
2018-06-05T14:59:02.320Z,100775.97
2018-06-05T15:01:31.110Z,100773.28
2018-06-05T15:04:00.609Z,100776.09
2018-06-05T15:06:29.512Z,100779.58
2018-06-05T15:08:58.147Z,100766.53
2018-06-05T15:11:26.964Z,100772.39
2018-06-05T15:13:55.569Z,100768.05
2018-06-05T15:16:24.377Z,100762.14
2018-06-05T15:18:53.177Z,100762.20
2018-06-05T15:21:21.846Z,100763.47
2018-06-05T15:23:50.565Z,100768.78
2018-06-05T15:26:19.193Z,100765.02
2018-06-05T15:28:47.815Z,100765.26
2018-06-05T15:31:16.500Z,100760.52
2018-06-05T15:33:45.149Z,100761.63
2018-06-05T15:36:13.720Z,100759.16
2018-06-05T15:38:42.552Z,100763.73
2018-06-05T15:41:11.173Z,100755.05
2018-06-05T15:43:39.828Z,100757.52
2018-06-05T15:46:08.413Z,100755.28
2018-06-05T15:48:36.983Z,100744.52
2018-06-05T15:51:05.737Z,100748.88
2018-06-05T15:53:34.551Z,100744.53
2018-06-05T15:56:03.185Z,100747.48
2018-06-05T15:58:31.788Z,100742.20
2018-06-05T16:01:00.363Z,100740.31
2018-06-05T16:03:29.169Z,100746.89
2018-06-05T16:05:57.785Z,100742.30
2018-06-05T16:08:26.336Z,100740.19
2018-06-05T16:10:55.001Z,100733.66
2018-06-05T16:13:23.729Z,100732.84
2018-06-05T16:15:52.332Z,100735.67
2018-06-05T16:18:20.931Z,100734.12
2018-06-05T16:20:49.585Z,100733.73
2018-06-05T16:23:18.180Z,100735.46
2018-06-05T16:25:46.920Z,100732.86
2018-06-05T16:28:15.553Z,100728.19
2018-06-05T16:30:45.126Z,100729.61
2018-06-05T16:33:13.728Z,100727.48
2018-06-05T16:35:42.353Z,100725.58
2018-06-05T16:38:10.948Z,100730.42
2018-06-05T16:40:39.512Z,100724.55
2018-06-05T16:43:08.452Z,100722.67
2018-06-05T16:45:37.115Z,100721.44
2018-06-05T16:48:06.299Z,100729.80
2018-06-05T16:50:35.502Z,100731.20
2018-06-05T16:53:04.166Z,100728.20
2018-06-05T16:55:32.764Z,100732.09
2018-06-05T16:58:01.425Z,100725.57
2018-06-05T17:00:30.061Z,100720.50
2018-06-05T17:02:58.720Z,100718.36
2018-06-05T17:05:27.300Z,100718.37
2018-06-05T17:07:57.581Z,100718.25
2018-06-05T17:10:26.269Z,100718.84
2018-06-05T17:12:55.051Z,100707.27
2018-06-05T17:15:23.637Z,100715.56
2018-06-05T17:17:52.250Z,100710.09
2018-06-05T17:20:20.845Z,100713.28
2018-06-05T17:22:49.469Z,100711.66
2018-06-05T17:25:18.190Z,100711.50
2018-06-05T17:27:46.783Z,100711.28
2018-06-05T17:30:15.579Z,100711.28
2018-06-05T17:32:44.259Z,100711.83
2018-06-05T17:35:12.944Z,100711.50
2018-06-05T17:37:41.860Z,100711.53
2018-06-05T17:40:10.541Z,100708.93
2018-06-05T17:42:39.211Z,100715.08
2018-06-05T17:45:07.825Z,100719.20
2018-06-05T17:47:36.410Z,100718.31
2018-06-05T17:50:05.076Z,100720.91
2018-06-05T17:52:33.625Z,100721.34
2018-06-05T17:55:02.278Z,100714.70
2018-06-05T17:57:30.946Z,100716.68
2018-06-05T17:59:59.549Z,100718.25
2018-06-05T18:02:28.151Z,100717.84
2018-06-05T18:04:56.739Z,100719.05
2018-06-05T18:07:25.403Z,100721.91
2018-06-05T18:09:53.982Z,100725.39
2018-06-05T18:12:22.777Z,100726.36
2018-06-05T18:14:51.321Z,100729.38
2018-06-05T18:17:19.957Z,100726.17
2018-06-05T18:19:48.755Z,100726.36
2018-06-05T18:22:17.367Z,100729.53
2018-06-05T18:24:45.929Z,100728.20
2018-06-05T18:27:14.596Z,100731.95
2018-06-05T18:29:43.278Z,100742.39
2018-06-05T18:32:11.952Z,100738.25
2018-06-05T18:34:40.604Z,100737.02
2018-06-05T18:37:09.236Z,100740.63
2018-06-05T18:39:38.094Z,100737.85
2018-06-05T18:42:06.836Z,100740.02
2018-06-05T18:44:35.537Z,100731.95
2018-06-05T18:47:04.292Z,100731.03
2018-06-05T18:49:32.951Z,100737.30
2018-06-05T18:52:02.401Z,100738.22
2018-06-05T18:54:31.117Z,100745.72
2018-06-05T18:56:59.773Z,100747.93
2018-06-05T18:59:28.459Z,100748.55
2018-06-05T19:01:57.055Z,100749.34
2018-06-05T19:04:25.690Z,100756.15
2018-06-05T19:06:54.244Z,100755.67
2018-06-05T19:09:23.889Z,100752.02
2018-06-05T19:11:52.620Z,100760.36
2018-06-05T19:14:21.819Z,100759.95
2018-06-05T19:16:52.152Z,100760.31
2018-06-05T19:19:20.871Z,100758.80
2018-06-05T19:21:49.473Z,100763.58
2018-06-05T19:24:18.176Z,100771.17
2018-06-05T19:26:47.090Z,100775.28
2018-06-05T19:29:16.020Z,100783.23
2018-06-05T19:31:44.477Z,100781.05
2018-06-05T19:34:13.293Z,100786.99
2018-06-05T19:36:41.982Z,100786.59
2018-06-05T19:39:10.620Z,100788.91
2018-06-05T19:41:39.478Z,100792.47
2018-06-05T19:44:08.145Z,100787.38
2018-06-05T19:46:36.848Z,100797.50
2018-06-05T19:49:05.544Z,100800.81
2018-06-05T19:51:34.257Z,100803.01
2018-06-05T19:54:02.879Z,100803.16
2018-06-05T19:56:31.693Z,100802.33
2018-06-05T19:59:00.459Z,100809.90
2018-06-05T20:01:29.177Z,100819.12
2018-06-05T20:03:57.794Z,100825.45
2018-06-05T20:06:26.649Z,100822.27
2018-06-05T20:08:55.377Z,100821.17
2018-06-05T20:11:24.202Z,100816.95
2018-06-05T20:13:53.025Z,100819.66
2018-06-05T20:16:21.737Z,100818.73
2018-06-05T20:18:50.476Z,100815.57
2018-06-05T20:21:19.363Z,100815.16
2018-06-05T20:23:48.059Z,100822.70
2018-06-05T20:26:16.720Z,100825.35
2018-06-05T20:28:45.357Z,100835.21
2018-06-05T20:31:14.131Z,100830.52
2018-06-05T20:33:42.721Z,100830.42
2018-06-05T20:36:11.391Z,100829.92
2018-06-05T20:38:39.955Z,100828.41
2018-06-05T20:41:08.661Z,100828.05
2018-06-05T20:43:37.388Z,100832.41
2018-06-05T20:46:06.196Z,100834.20
2018-06-05T20:48:34.839Z,100839.34
2018-06-05T20:51:03.484Z,100842.00
2018-06-05T20:53:32.152Z,100842.95
2018-06-05T20:56:00.833Z,100852.52
2018-06-05T20:58:29.605Z,100849.70
2018-06-05T21:00:58.274Z,100851.63
2018-06-05T21:03:26.895Z,100855.17
2018-06-05T21:05:55.491Z,100851.27
2018-06-05T21:08:24.547Z,100848.32
2018-06-05T21:10:53.277Z,100848.53
2018-06-05T21:13:22.548Z,100845.43
2018-06-05T21:15:51.235Z,100850.14
2018-06-05T21:18:19.812Z,100851.48
2018-06-05T21:20:48.480Z,100853.94
2018-06-05T21:23:17.056Z,100853.15
2018-06-05T21:25:45.726Z,100850.19
2018-06-05T21:28:14.387Z,100858.67
2018-06-05T21:30:42.980Z,100867.10
2018-06-05T21:33:11.571Z,100869.28
2018-06-05T21:35:40.262Z,100868.43
2018-06-05T21:38:08.830Z,100871.95
2018-06-05T21:40:37.709Z,100859.17
2018-06-05T21:43:06.525Z,100859.62
2018-06-05T21:45:35.152Z,100860.95
2018-06-05T21:48:03.772Z,100855.66
2018-06-05T21:50:32.406Z,100863.14
2018-06-05T21:53:01.092Z,100863.97
2018-06-05T21:55:29.676Z,100858.31
2018-06-05T21:57:58.321Z,100852.59
2018-06-05T22:00:26.971Z,100857.89
2018-06-05T22:02:55.665Z,100854.36
2018-06-05T22:05:24.480Z,100855.66
2018-06-05T22:07:53.224Z,100864.91
2018-06-05T22:10:21.809Z,100860.98
2018-06-05T22:12:50.607Z,100862.28
2018-06-05T22:15:19.313Z,100844.25
2018-06-05T22:17:48.216Z,100851.67
2018-06-05T22:20:16.807Z,100865.36
2018-06-05T22:22:45.449Z,100864.02
2018-06-05T22:25:13.996Z,100868.42
2018-06-05T22:27:42.624Z,100860.95
2018-06-05T22:30:11.304Z,100862.70
2018-06-05T22:32:40.110Z,100864.02
2018-06-05T22:35:08.775Z,100864.05
2018-06-05T22:37:37.414Z,100855.69
2018-06-05T22:40:06.333Z,100861.81
2018-06-05T22:42:35.120Z,100860.05
2018-06-05T22:45:03.773Z,100854.28
2018-06-05T22:47:32.372Z,100856.48
2018-06-05T22:50:01.042Z,100849.39
2018-06-05T22:52:29.661Z,100848.13
2018-06-05T22:54:58.564Z,100848.12
2018-06-05T22:57:27.193Z,100851.59
2018-06-05T22:59:55.820Z,100846.74
2018-06-05T23:02:24.416Z,100847.19
2018-06-05T23:04:53.163Z,100851.26
2018-06-05T23:07:21.818Z,100857.86
2018-06-05T23:09:50.738Z,100858.29
2018-06-05T23:12:19.365Z,100859.88
2018-06-05T23:14:47.976Z,100862.94
2018-06-05T23:17:16.593Z,100864.17
2018-06-05T23:19:45.152Z,100863.63
2018-06-05T23:22:13.717Z,100863.65
2018-06-05T23:24:42.414Z,100864.98
2018-06-05T23:27:11.094Z,100860.19
2018-06-05T23:29:39.651Z,100866.77
2018-06-05T23:32:08.252Z,100860.25
2018-06-05T23:34:36.985Z,100865.55
2018-06-05T23:37:05.685Z,100863.77
2018-06-05T23:39:34.263Z,100860.25
2018-06-05T23:42:03.712Z,100865.92
2018-06-05T23:44:32.346Z,100859.66
2018-06-05T23:47:01.049Z,100864.12
2018-06-05T23:49:29.581Z,100868.13
2018-06-05T23:51:59.154Z,100861.56
2018-06-05T23:54:27.892Z,100857.62
2018-06-05T23:56:56.517Z,100854.88
2018-06-05T23:59:25.170Z,100864.13
